Time;durP1;ratioP1;P1;durP2;ratioP2;P2;SDS_P1;SDS_P2;PMS_P1;PMS_P2;Temp;Humidity;BMP_temperature;BMP_pressure;BME280_temperature;BME280_humidity;BME280_pressure;Samples;Min_cycle;Max_cycle;Signal;HPM_P1;HPM_P2
2022/07/01 00:02:25;;;;;;;7.00;5.35;;;;;;;;;;5018955;28;20033;-70
2022/07/01 00:04:50;;;;;;;5.68;5.10;;;;;;;;;;5027391;28;20119;-71
2022/07/01 00:07:16;;;;;;;5.72;5.22;;;;;;;;;;5022938;28;20125;-69
2022/07/01 00:09:41;;;;;;;9.50;5.43;;;;;;;;;;5017777;28;20025;-71
2022/07/01 00:12:07;;;;;;;5.60;4.88;;;;;;;;;;5020171;28;20033;-77
2022/07/01 00:14:32;;;;;;;6.22;5.10;;;;;;;;;;5027415;28;20364;-71
2022/07/01 00:16:58;;;;;;;7.97;5.22;;;;;;;;;;5027265;28;20137;-77
2022/07/01 00:19:24;;;;;;;6.35;5.43;;;;;;;;;;5027551;28;20379;-73
2022/07/01 00:21:50;;;;;;;8.77;5.75;;;;;;;;;;5023843;28;20033;-70
2022/07/01 00:24:15;;;;;;;9.43;6.28;;;;;;;;;;5017150;28;20025;-68
2022/07/01 00:26:40;;;;;;;5.40;4.88;;;;;;;;;;5023231;28;20397;-69
2022/07/01 00:29:06;;;;;;;6.47;5.88;;;;;;;;;;5020435;28;20025;-69
2022/07/01 00:31:31;;;;;;;8.90;5.07;;;;;;;;;;5027614;28;20044;-68
2022/07/01 00:33:57;;;;;;;10.82;6.10;;;;;;;;;;5027465;28;20224;-76
2022/07/01 00:36:22;;;;;;;7.15;5.47;;;;;;;;;;5026827;28;20113;-71
2022/07/01 00:38:47;;;;;;;6.28;5.55;;;;;;;;;;5027349;28;20029;-78
2022/07/01 00:41:13;;;;;;;7.38;5.30;;;;;;;;;;5026602;28;20061;-73
2022/07/01 00:43:39;;;;;;;6.95;5.60;;;;;;;;;;5018041;28;20031;-70
2022/07/01 00:46:05;;;;;;;6.90;5.35;;;;;;;;;;5027280;28;20388;-69
2022/07/01 00:48:32;;;;;;;7.68;5.57;;;;;;;;;;5027290;28;20026;-73
2022/07/01 00:50:57;;;;;;;6.15;5.60;;;;;;;;;;5026742;28;20052;-69
2022/07/01 00:53:23;;;;;;;9.40;5.68;;;;;;;;;;5026404;28;20052;-76
2022/07/01 00:55:49;;;;;;;5.93;5.43;;;;;;;;;;5026729;28;20065;-69
2022/07/01 00:58:14;;;;;;;5.10;4.65;;;;;;;;;;5017792;28;20057;-69
2022/07/01 01:00:40;;;;;;;5.97;5.47;;;;;;;;;;5025578;28;20022;-69
2022/07/01 01:03:06;;;;;;;5.18;4.70;;;;;;;;;;5026399;28;20037;-69
2022/07/01 01:05:31;;;;;;;6.65;4.90;;;;;;;;;;5024157;28;20104;-70
2022/07/01 01:07:57;;;;;;;6.55;5.32;;;;;;;;;;5026337;28;20128;-75
2022/07/01 01:10:23;;;;;;;6.47;5.40;;;;;;;;;;5026507;28;20541;-70
2022/07/01 01:12:49;;;;;;;10.32;5.38;;;;;;;;;;5020550;28;20037;-71
2022/07/01 01:15:18;;;;;;;6.45;5.60;;;;;;;;;;5023203;28;20026;-68
2022/07/01 01:17:43;;;;;;;8.20;5.15;;;;;;;;;;5026010;28;20095;-70
2022/07/01 01:20:14;;;;;;;5.60;5.10;;;;;;;;;;5025840;28;20033;-69
2022/07/01 01:22:40;;;;;;;8.93;5.22;;;;;;;;;;5026176;28;20128;-70
2022/07/01 01:25:05;;;;;;;5.53;5.07;;;;;;;;;;5026170;28;20108;-69
2022/07/01 01:27:30;;;;;;;7.88;5.25;;;;;;;;;;5022597;28;20523;-68
2022/07/01 01:29:56;;;;;;;9.15;5.22;;;;;;;;;;5015375;28;20425;-68
2022/07/01 01:32:21;;;;;;;7.22;5.60;;;;;;;;;;5024696;28;20037;-69
2022/07/01 01:34:47;;;;;;;5.05;4.47;;;;;;;;;;5024955;28;21094;-75
2022/07/01 01:37:12;;;;;;;8.00;6.20;;;;;;;;;;5015465;28;20025;-70
2022/07/01 01:39:37;;;;;;;9.45;5.57;;;;;;;;;;5020309;28;20261;-77
2022/07/01 01:42:04;;;;;;;5.72;5.00;;;;;;;;;;5016471;28;20061;-72
2022/07/01 01:44:29;;;;;;;5.43;4.90;;;;;;;;;;5018360;28;20041;-68
2022/07/01 01:46:55;;;;;;;6.35;5.50;;;;;;;;;;5025673;28;20025;-69
2022/07/01 01:49:20;;;;;;;6.72;5.32;;;;;;;;;;5025933;28;20063;-69
2022/07/01 01:51:45;;;;;;;8.65;4.95;;;;;;;;;;5025312;28;20036;-74
2022/07/01 01:54:11;;;;;;;7.38;5.13;;;;;;;;;;5025328;28;20112;-69
2022/07/01 01:56:36;;;;;;;6.30;5.70;;;;;;;;;;5017822;28;20022;-71
2022/07/01 01:59:01;;;;;;;9.05;5.10;;;;;;;;;;5023630;28;20028;-75
2022/07/01 02:01:27;;;;;;;6.90;5.65;;;;;;;;;;5017858;28;20047;-71
2022/07/01 02:03:53;;;;;;;15.38;5.60;;;;;;;;;;5024583;28;20033;-69
2022/07/01 02:06:20;;;;;;;6.35;5.40;;;;;;;;;;5025757;28;20030;-68
2022/07/01 02:08:45;;;;;;;5.35;4.88;;;;;;;;;;5025429;28;20116;-67
2022/07/01 02:11:10;;;;;;;7.30;4.53;;;;;;;;;;5025325;28;20454;-73
2022/07/01 02:13:36;;;;;;;9.30;5.60;;;;;;;;;;5026116;28;20077;-71
2022/07/01 02:16:02;;;;;;;7.18;5.72;;;;;;;;;;5019798;28;20037;-72
2022/07/01 02:18:28;;;;;;;14.93;6.25;;;;;;;;;;5020833;28;20021;-67
2022/07/01 02:20:53;;;;;;;5.97;5.35;;;;;;;;;;5024874;28;20368;-67
2022/07/01 02:23:19;;;;;;;8.32;5.78;;;;;;;;;;5024957;28;20099;-67
2022/07/01 02:25:44;;;;;;;8.02;6.28;;;;;;;;;;5025132;28;20029;-68
2022/07/01 02:28:10;;;;;;;7.45;5.80;;;;;;;;;;5024781;28;20493;-74
2022/07/01 02:30:36;;;;;;;6.70;5.38;;;;;;;;;;5025149;28;20029;-68
2022/07/01 02:33:07;;;;;;;7.15;5.20;;;;;;;;;;5024707;28;20623;-76
2022/07/01 02:35:33;;;;;;;7.32;4.95;;;;;;;;;;5024832;28;20053;-71
2022/07/01 02:37:59;;;;;;;6.53;5.70;;;;;;;;;;5025270;28;20080;-68
2022/07/01 02:40:24;;;;;;;7.60;4.97;;;;;;;;;;5024838;28;20104;-69
2022/07/01 02:42:49;;;;;;;5.85;5.18;;;;;;;;;;5024410;28;20137;-68
2022/07/01 02:45:15;;;;;;;5.90;4.82;;;;;;;;;;5024543;28;20037;-71
2022/07/01 02:47:40;;;;;;;9.07;5.85;;;;;;;;;;5024445;28;20025;-68
2022/07/01 02:50:10;;;;;;;7.60;5.80;;;;;;;;;;5024346;28;20025;-70
2022/07/01 02:52:36;;;;;;;6.20;5.22;;;;;;;;;;5024797;28;20037;-69
2022/07/01 02:55:02;;;;;;;5.60;5.10;;;;;;;;;;5021967;28;20038;-77
2022/07/01 02:57:28;;;;;;;7.30;5.60;;;;;;;;;;5024545;28;20029;-73
2022/07/01 02:59:53;;;;;;;5.90;5.18;;;;;;;;;;5016895;28;20029;-69
2022/07/01 03:02:19;;;;;;;7.78;5.95;;;;;;;;;;5022968;28;20467;-69
2022/07/01 03:04:45;;;;;;;6.50;5.20;;;;;;;;;;5024333;28;20040;-66
2022/07/01 03:07:11;;;;;;;5.75;5.18;;;;;;;;;;5023821;28;20033;-67
2022/07/01 03:09:39;;;;;;;6.88;5.93;;;;;;;;;;5023719;28;20029;-79
2022/07/01 03:12:24;;;;;;;6.75;5.00;;;;;;;;;;5024405;28;20057;-67
2022/07/01 03:14:51;;;;;;;6.07;5.45;;;;;;;;;;5024952;28;20026;-76
2022/07/01 03:17:16;;;;;;;8.20;5.97;;;;;;;;;;5024550;28;20029;-69
2022/07/01 03:19:42;;;;;;;6.63;5.70;;;;;;;;;;5024573;28;20083;-68
2022/07/01 03:22:07;;;;;;;5.47;4.60;;;;;;;;;;5016148;28;20373;-68
2022/07/01 03:24:32;;;;;;;9.63;5.57;;;;;;;;;;5024781;28;20033;-69
2022/07/01 03:26:59;;;;;;;5.97;5.30;;;;;;;;;;5024529;28;20033;-67
2022/07/01 03:29:24;;;;;;;7.07;5.07;;;;;;;;;;5024663;28;20049;-66
2022/07/01 03:31:50;;;;;;;4.80;4.45;;;;;;;;;;5023046;28;20065;-71
2022/07/01 03:34:15;;;;;;;10.55;5.22;;;;;;;;;;5024457;28;20372;-67
2022/07/01 03:36:40;;;;;;;7.60;5.30;;;;;;;;;;5024433;28;20109;-76
2022/07/01 03:39:06;;;;;;;8.52;4.97;;;;;;;;;;5024035;28;20029;-71
2022/07/01 03:41:31;;;;;;;5.60;5.10;;;;;;;;;;5024380;28;20080;-67
2022/07/01 03:43:56;;;;;;;6.72;6.03;;;;;;;;;;5024797;28;20472;-68
2022/07/01 03:46:22;;;;;;;5.93;5.40;;;;;;;;;;5023863;28;20079;-69
2022/07/01 03:48:47;;;;;;;6.78;5.95;;;;;;;;;;5024104;28;20021;-67
2022/07/01 03:51:12;;;;;;;6.65;5.95;;;;;;;;;;5019011;28;20044;-67
2022/07/01 03:56:21;;;;;;;7.72;5.53;;;;;;;;;;5012700;28;20120;-72
2022/07/01 03:58:47;;;;;;;8.35;4.90;;;;;;;;;;5018954;28;20124;-70
2022/07/01 04:01:12;;;;;;;6.57;4.68;;;;;;;;;;5014628;28;20079;-78
2022/07/01 04:03:38;;;;;;;5.72;5.00;;;;;;;;;;5017315;28;20467;-74
2022/07/01 04:06:03;;;;;;;6.80;5.63;;;;;;;;;;5018808;28;20104;-69
2022/07/01 04:08:28;;;;;;;6.80;5.07;;;;;;;;;;5019087;28;20029;-67
2022/07/01 04:10:55;;;;;;;7.40;4.82;;;;;;;;;;5026931;28;20107;-68
2022/07/01 04:13:20;;;;;;;4.80;4.28;;;;;;;;;;5024436;28;20025;-74
2022/07/01 04:15:46;;;;;;;5.28;4.80;;;;;;;;;;5020955;28;20021;-69
2022/07/01 04:18:12;;;;;;;6.97;4.85;;;;;;;;;;5014262;28;20033;-72
2022/07/01 04:20:37;;;;;;;6.97;4.88;;;;;;;;;;5016697;28;20345;-78
2022/07/01 04:23:02;;;;;;;13.45;5.03;;;;;;;;;;5017680;28;20125;-69
2022/07/01 04:25:29;;;;;;;5.50;5.00;;;;;;;;;;5016740;28;20372;-68
2022/07/01 04:27:56;;;;;;;6.70;5.13;;;;;;;;;;5017014;28;20025;-67
2022/07/01 04:30:21;;;;;;;6.13;5.43;;;;;;;;;;5016702;28;20045;-68
2022/07/01 04:32:46;;;;;;;5.32;4.80;;;;;;;;;;5016456;28;20524;-77
2022/07/01 04:35:14;;;;;;;6.10;4.60;;;;;;;;;;5021092;28;20386;-71
2022/07/01 04:37:39;;;;;;;5.25;4.75;;;;;;;;;;5026117;28;20106;-68
2022/07/01 04:40:05;;;;;;;6.30;5.00;;;;;;;;;;5018513;28;20029;-70
2022/07/01 04:42:30;;;;;;;7.28;4.40;;;;;;;;;;5026193;28;20081;-75
2022/07/01 04:44:56;;;;;;;5.53;5.13;;;;;;;;;;5025944;28;20029;-71
2022/07/01 04:47:22;;;;;;;6.82;4.65;;;;;;;;;;5021845;28;20036;-74
2022/07/01 04:49:47;;;;;;;6.10;5.18;;;;;;;;;;5014387;28;20215;-67
2022/07/01 04:52:13;;;;;;;6.28;5.18;;;;;;;;;;5014856;28;20132;-71
2022/07/01 04:54:38;;;;;;;9.50;5.22;;;;;;;;;;5016036;28;20029;-67
2022/07/01 04:57:03;;;;;;;5.70;5.20;;;;;;;;;;5014610;28;20021;-66
2022/07/01 04:59:29;;;;;;;5.47;4.82;;;;;;;;;;5015424;28;20013;-67
2022/07/01 05:01:54;;;;;;;5.47;4.97;;;;;;;;;;5022571;28;20407;-67
2022/07/01 05:04:19;;;;;;;6.88;4.97;;;;;;;;;;5025053;28;20040;-72
2022/07/01 05:06:45;;;;;;;5.07;4.60;;;;;;;;;;5017234;28;20056;-69
2022/07/01 05:09:11;;;;;;;7.30;4.78;;;;;;;;;;5021636;28;20140;-73
2022/07/01 05:11:36;;;;;;;6.13;4.47;;;;;;;;;;5014996;28;20106;-69
2022/07/01 05:14:02;;;;;;;6.97;4.63;;;;;;;;;;5016002;28;20074;-68
2022/07/01 05:16:27;;;;;;;7.20;4.35;;;;;;;;;;5016448;28;20025;-69
2022/07/01 05:24:20;;;;;;;5.28;4.78;;;;;;;;;;5025421;28;20032;-68
2022/07/01 05:26:46;;;;;;;5.30;4.80;;;;;;;;;;5024901;28;20037;-72
2022/07/01 05:29:11;;;;;;;4.13;3.80;;;;;;;;;;5025195;28;20325;-69
2022/07/01 05:31:36;;;;;;;4.95;4.45;;;;;;;;;;5025323;28;20102;-76
2022/07/01 05:34:02;;;;;;;5.65;5.15;;;;;;;;;;5017390;28;20078;-68
2022/07/01 05:36:27;;;;;;;5.00;4.60;;;;;;;;;;5022018;28;20433;-69
2022/07/01 05:38:53;;;;;;;8.38;6.20;;;;;;;;;;5023995;28;20025;-66
2022/07/01 05:41:18;;;;;;;9.35;6.93;;;;;;;;;;5024365;28;20384;-70
2022/07/01 05:43:44;;;;;;;9.30;5.93;;;;;;;;;;5024302;28;20037;-67
2022/07/01 05:46:09;;;;;;;6.95;5.45;;;;;;;;;;5022242;28;20021;-76
2022/07/01 05:48:35;;;;;;;5.38;4.88;;;;;;;;;;5018290;28;20040;-70
2022/07/01 05:51:00;;;;;;;6.50;5.00;;;;;;;;;;5024760;28;20204;-67
2022/07/01 05:53:25;;;;;;;5.53;4.88;;;;;;;;;;5024426;28;20515;-72
2022/07/01 05:55:51;;;;;;;8.98;5.20;;;;;;;;;;5015656;28;20029;-68
2022/07/01 05:58:16;;;;;;;6.28;4.95;;;;;;;;;;5019064;28;20164;-65
2022/07/01 06:00:42;;;;;;;8.52;4.78;;;;;;;;;;5024276;28;20061;-68
2022/07/01 06:03:08;;;;;;;6.70;4.80;;;;;;;;;;5024031;28;20021;-66
2022/07/01 06:05:33;;;;;;;5.45;4.93;;;;;;;;;;5023565;28;20029;-75
2022/07/01 06:07:59;;;;;;;7.97;5.53;;;;;;;;;;5018051;28;20334;-67
2022/07/01 06:10:24;;;;;;;6.50;5.35;;;;;;;;;;5024525;28;20021;-70
2022/07/01 06:12:49;;;;;;;13.27;5.82;;;;;;;;;;5024493;28;20037;-73
2022/07/01 06:15:15;;;;;;;6.65;5.93;;;;;;;;;;5024084;28;20097;-69
2022/07/01 06:17:41;;;;;;;7.13;5.53;;;;;;;;;;5024538;28;20029;-69
2022/07/01 06:20:07;;;;;;;9.38;5.57;;;;;;;;;;5020507;28;20025;-69
2022/07/01 06:22:33;;;;;;;7.10;4.97;;;;;;;;;;5024156;28;20061;-67
2022/07/01 06:24:58;;;;;;;5.57;5.00;;;;;;;;;;5024167;28;20361;-66
2022/07/01 06:27:24;;;;;;;7.43;4.75;;;;;;;;;;5023896;28;20025;-70
2022/07/01 06:29:49;;;;;;;5.63;4.40;;;;;;;;;;5024518;28;20052;-68
2022/07/01 06:32:15;;;;;;;8.07;4.30;;;;;;;;;;5024475;28;20041;-68
2022/07/01 06:34:40;;;;;;;6.30;4.30;;;;;;;;;;5024085;28;20037;-66
2022/07/01 06:37:06;;;;;;;6.00;4.00;;;;;;;;;;5024344;28;20033;-69
2022/07/01 06:39:31;;;;;;;5.13;4.35;;;;;;;;;;5023996;28;20491;-66
2022/07/01 06:41:56;;;;;;;4.60;4.15;;;;;;;;;;5024287;28;20460;-68
2022/07/01 06:44:22;;;;;;;21.27;4.22;;;;;;;;;;5024190;28;20025;-66
2022/07/01 06:46:47;;;;;;;6.03;4.25;;;;;;;;;;5023816;28;20057;-73
2022/07/01 06:49:13;;;;;;;5.82;4.25;;;;;;;;;;5023644;28;20065;-68
2022/07/01 06:51:38;;;;;;;5.72;4.05;;;;;;;;;;5022425;28;20437;-68
2022/07/01 06:54:03;;;;;;;9.73;4.00;;;;;;;;;;5023945;28;20443;-72
2022/07/01 06:56:29;;;;;;;6.18;4.00;;;;;;;;;;5023606;28;20108;-68
2022/07/01 06:58:54;;;;;;;4.45;4.03;;;;;;;;;;5023825;28;20021;-67
2022/07/01 07:01:20;;;;;;;5.07;4.07;;;;;;;;;;5024626;28;20017;-65
2022/07/01 07:03:45;;;;;;;4.47;4.07;;;;;;;;;;5023743;28;20036;-68
2022/07/01 07:06:10;;;;;;;8.05;4.85;;;;;;;;;;5020772;28;20033;-66
2022/07/01 07:08:36;;;;;;;6.30;5.00;;;;;;;;;;5019394;28;20051;-67
2022/07/01 07:11:02;;;;;;;7.70;4.70;;;;;;;;;;5023955;28;20112;-65
2022/07/01 07:13:28;;;;;;;4.50;3.97;;;;;;;;;;5023984;28;20029;-67
2022/07/01 07:15:54;;;;;;;5.65;4.35;;;;;;;;;;5023575;28;20445;-72
2022/07/01 07:18:19;;;;;;;5.32;4.82;;;;;;;;;;5023554;28;20025;-65
2022/07/01 07:20:45;;;;;;;4.82;4.32;;;;;;;;;;5023835;28;20033;-66
2022/07/01 07:23:10;;;;;;;5.95;4.90;;;;;;;;;;5024144;28;20021;-65
2022/07/01 07:25:35;;;;;;;7.10;5.13;;;;;;;;;;5023172;28;20112;-68
2022/07/01 07:28:01;;;;;;;7.30;4.55;;;;;;;;;;5022756;28;20455;-68
2022/07/01 07:30:26;;;;;;;5.57;4.80;;;;;;;;;;5023467;28;20021;-74
2022/07/01 07:32:51;;;;;;;6.80;4.35;;;;;;;;;;5023411;28;20042;-70
2022/07/01 07:35:17;;;;;;;5.97;4.05;;;;;;;;;;5024328;28;20030;-68
2022/07/01 07:37:43;;;;;;;6.35;3.80;;;;;;;;;;5027559;28;20044;-68
2022/07/01 07:40:13;;;;;;;3.78;3.47;;;;;;;;;;5027866;28;20022;-66
2022/07/01 07:42:39;;;;;;;7.50;3.80;;;;;;;;;;5028011;28;20121;-67
2022/07/01 07:45:09;;;;;;;5.00;3.45;;;;;;;;;;5027478;28;20448;-67
2022/07/01 07:47:36;;;;;;;3.65;2.88;;;;;;;;;;5027270;28;20049;-67
2022/07/01 07:50:02;;;;;;;5.80;3.60;;;;;;;;;;5027304;28;20021;-67
2022/07/01 07:52:27;;;;;;;5.18;3.30;;;;;;;;;;5027310;28;20482;-73
2022/07/01 07:54:53;;;;;;;6.47;3.47;;;;;;;;;;5025608;28;20113;-69
2022/07/01 07:57:18;;;;;;;6.03;3.35;;;;;;;;;;5017803;28;20120;-76
2022/07/01 07:59:43;;;;;;;5.35;3.47;;;;;;;;;;5017389;28;20033;-71
2022/07/01 08:02:09;;;;;;;7.32;3.22;;;;;;;;;;5017568;28;20435;-69
2022/07/01 08:04:34;;;;;;;4.93;3.10;;;;;;;;;;5017173;28;20180;-69
2022/07/01 08:06:59;;;;;;;3.95;3.20;;;;;;;;;;5017207;28;20725;-67
2022/07/01 08:09:25;;;;;;;4.95;3.08;;;;;;;;;;5018169;28;20053;-67
2022/07/01 08:11:51;;;;;;;5.05;3.40;;;;;;;;;;5016846;28;20026;-67
2022/07/01 08:14:16;;;;;;;4.85;3.20;;;;;;;;;;5017043;28;20432;-71
2022/07/01 08:16:41;;;;;;;4.25;3.00;;;;;;;;;;5016997;28;20122;-72
2022/07/01 08:19:07;;;;;;;5.47;2.95;;;;;;;;;;5017170;28;20439;-68
2022/07/01 08:21:32;;;;;;;5.10;3.30;;;;;;;;;;5016793;28;20415;-79
2022/07/01 08:23:57;;;;;;;5.00;3.15;;;;;;;;;;5016728;28;20037;-72
2022/07/01 08:26:23;;;;;;;3.65;3.13;;;;;;;;;;5016725;28;20108;-72
2022/07/01 08:28:48;;;;;;;2.90;2.70;;;;;;;;;;5017377;28;20095;-69
2022/07/01 08:31:14;;;;;;;3.58;2.92;;;;;;;;;;5016749;28;20108;-69
2022/07/01 08:33:39;;;;;;;3.20;2.90;;;;;;;;;;5015669;28;20124;-67
2022/07/01 08:36:05;;;;;;;3.10;2.70;;;;;;;;;;5017356;28;20034;-68
2022/07/01 08:38:31;;;;;;;5.68;2.78;;;;;;;;;;5016647;28;20432;-69
2022/07/01 08:40:56;;;;;;;3.75;3.00;;;;;;;;;;5017200;28;20049;-76
2022/07/01 08:43:22;;;;;;;2.80;2.53;;;;;;;;;;5017381;28;20056;-70
2022/07/01 08:45:47;;;;;;;5.60;2.75;;;;;;;;;;5017354;28;20377;-68
2022/07/01 08:48:13;;;;;;;5.13;3.10;;;;;;;;;;5016898;28;20512;-68
2022/07/01 08:50:39;;;;;;;5.07;2.88;;;;;;;;;;5017030;28;20029;-66
2022/07/01 08:53:05;;;;;;;3.70;3.28;;;;;;;;;;5017250;28;20060;-67
2022/07/01 08:55:31;;;;;;;3.30;2.80;;;;;;;;;;5017132;28;20036;-69
2022/07/01 08:57:57;;;;;;;3.33;2.50;;;;;;;;;;5016534;28;20345;-79
2022/07/01 09:00:28;;;;;;;3.83;2.90;;;;;;;;;;5015803;28;20021;-68
2022/07/01 09:02:55;;;;;;;4.93;3.22;;;;;;;;;;5014919;28;20048;-67
2022/07/01 09:05:22;;;;;;;3.05;2.75;;;;;;;;;;5017237;28;20029;-66
2022/07/01 09:07:47;;;;;;;4.50;3.10;;;;;;;;;;5022518;28;20022;-77
2022/07/01 09:10:14;;;;;;;3.78;2.92;;;;;;;;;;5026201;28;20030;-69
2022/07/01 09:12:40;;;;;;;6.03;2.80;;;;;;;;;;5027572;28;20079;-67
2022/07/01 09:15:25;;;;;;;6.30;3.10;;;;;;;;;;5026673;28;20068;-67
2022/07/01 09:17:54;;;;;;;3.35;2.95;;;;;;;;;;5026953;28;20032;-68
2022/07/01 09:20:24;;;;;;;4.47;2.83;;;;;;;;;;5023749;28;20017;-69
2022/07/01 09:22:59;;;;;;;3.85;3.00;;;;;;;;;;5015335;28;20029;-67
2022/07/01 09:25:29;;;;;;;4.80;2.47;;;;;;;;;;5015697;28;20021;-71
2022/07/01 09:28:05;;;;;;;3.65;2.75;;;;;;;;;;5016054;28;20180;-68
2022/07/01 09:30:32;;;;;;;4.00;2.50;;;;;;;;;;5018913;28;20029;-70
2022/07/01 09:33:24;;;;;;;3.13;2.72;;;;;;;;;;5025502;28;20033;-70
2022/07/01 09:35:49;;;;;;;4.32;2.63;;;;;;;;;;5022471;28;20128;-72
2022/07/01 09:38:16;;;;;;;3.85;2.70;;;;;;;;;;5026445;28;20382;-70
2022/07/01 09:40:46;;;;;;;3.90;3.15;;;;;;;;;;5025766;28;20352;-70
2022/07/01 09:43:32;;;;;;;2.67;2.47;;;;;;;;;;5025354;28;20095;-69
2022/07/01 09:45:57;;;;;;;5.53;2.60;;;;;;;;;;5025542;28;20055;-69
2022/07/01 09:48:24;;;;;;;3.38;2.78;;;;;;;;;;5024778;28;20025;-67
2022/07/01 09:50:50;;;;;;;4.18;3.10;;;;;;;;;;5017272;28;20036;-77
2022/07/01 09:53:15;;;;;;;3.58;2.80;;;;;;;;;;5025300;28;20030;-68
2022/07/01 09:55:41;;;;;;;3.80;2.95;;;;;;;;;;5025766;28;21245;-71
2022/07/01 09:58:06;;;;;;;4.18;2.75;;;;;;;;;;5024932;28;20052;-69
2022/07/01 10:00:33;;;;;;;3.83;2.60;;;;;;;;;;5022165;28;20029;-69
2022/07/01 10:03:00;;;;;;;2.90;2.60;;;;;;;;;;5025061;28;20029;-73
2022/07/01 10:05:26;;;;;;;2.60;2.40;;;;;;;;;;5025239;28;20502;-71
2022/07/01 10:07:57;;;;;;;3.80;2.60;;;;;;;;;;5019332;28;20083;-70
2022/07/01 10:10:22;;;;;;;3.58;2.65;;;;;;;;;;5013516;28;20025;-68
2022/07/01 10:12:55;;;;;;;4.63;2.90;;;;;;;;;;5015125;28;20408;-70
2022/07/01 10:15:20;;;;;;;4.43;2.90;;;;;;;;;;5015232;28;20021;-68
2022/07/01 10:17:50;;;;;;;3.05;2.67;;;;;;;;;;5014339;28;20028;-70
2022/07/01 10:20:33;;;;;;;2.42;2.22;;;;;;;;;;5014326;28;20049;-69
2022/07/01 10:23:06;;;;;;;4.60;2.85;;;;;;;;;;5014694;28;20456;-70
2022/07/01 10:25:43;;;;;;;3.08;2.65;;;;;;;;;;5014460;28;20044;-77
2022/07/01 10:28:12;;;;;;;2.63;2.43;;;;;;;;;;5014576;28;20120;-74
2022/07/01 10:30:37;;;;;;;;;;;;;;;;;;5015432;28;20326;-75
2022/07/01 10:33:02;;;;;;;5.43;2.50;;;;;;;;;;5014885;28;20011;-76
2022/07/01 10:35:27;;;;;;;3.45;2.60;;;;;;;;;;5015779;28;20091;-70
2022/07/01 10:37:57;;;;;;;3.95;2.60;;;;;;;;;;5015042;28;20053;-68
2022/07/01 10:40:39;;;;;;;2.85;2.55;;;;;;;;;;5015416;28;20033;-72
2022/07/01 10:43:04;;;;;;;8.10;3.10;;;;;;;;;;4995363;28;20050;-69
2022/07/01 10:45:40;;;;;;;4.78;2.80;;;;;;;;;;5000668;28;20030;-70
2022/07/01 10:48:24;;;;;;;3.33;3.00;;;;;;;;;;5003039;28;20096;-70
2022/07/01 10:50:50;;;;;;;2.88;2.15;;;;;;;;;;4994816;28;20112;-68
2022/07/01 10:53:16;;;;;;;2.42;2.17;;;;;;;;;;4994553;28;20104;-74
2022/07/01 10:55:44;;;;;;;2.70;2.50;;;;;;;;;;4994743;28;20042;-77
2022/07/01 10:58:10;;;;;;;3.90;2.30;;;;;;;;;;4995602;28;20026;-69
2022/07/01 11:00:36;;;;;;;4.88;2.47;;;;;;;;;;4995185;28;20036;-79
2022/07/01 11:03:09;;;;;;;2.67;2.47;;;;;;;;;;4999555;28;20022;-73
2022/07/01 11:05:36;;;;;;;4.22;2.30;;;;;;;;;;5004993;28;20033;-68
2022/07/01 11:08:01;;;;;;;4.18;2.15;;;;;;;;;;4987992;28;20340;-70
2022/07/01 11:10:27;;;;;;;4.28;2.60;;;;;;;;;;5007273;28;20030;-72
2022/07/01 11:12:52;;;;;;;2.13;1.92;;;;;;;;;;5008974;28;20412;-74
2022/07/01 11:15:18;;;;;;;2.95;2.30;;;;;;;;;;5001082;28;20053;-70
2022/07/01 11:17:44;;;;;;;2.78;2.53;;;;;;;;;;5007169;28;20033;-75
2022/07/01 11:20:09;;;;;;;2.72;2.50;;;;;;;;;;5008756;28;20064;-73
2022/07/01 11:22:35;;;;;;;3.95;2.80;;;;;;;;;;5003456;28;20057;-71
2022/07/01 11:25:01;;;;;;;3.33;2.38;;;;;;;;;;4998841;28;20036;-70
2022/07/01 11:27:28;;;;;;;5.13;2.40;;;;;;;;;;5001846;28;20092;-71
2022/07/01 11:29:54;;;;;;;3.67;2.53;;;;;;;;;;4998007;28;20037;-80
2022/07/01 11:32:26;;;;;;;2.28;2.08;;;;;;;;;;4998874;28;20396;-76
2022/07/01 11:34:52;;;;;;;3.20;2.55;;;;;;;;;;4999097;28;20036;-69
2022/07/01 11:40:08;;;;;;;2.55;2.10;;;;;;;;;;4998764;28;20121;-71
2022/07/01 11:42:34;;;;;;;4.10;2.28;;;;;;;;;;5014528;28;20119;-71
2022/07/01 11:45:00;;;;;;;2.70;2.40;;;;;;;;;;5017272;28;20021;-70
2022/07/01 11:47:26;;;;;;;2.50;2.30;;;;;;;;;;5018320;28;20029;-70
2022/07/01 11:49:52;;;;;;;2.65;2.33;;;;;;;;;;5018585;28;20111;-74
2022/07/01 11:52:18;;;;;;;2.75;2.40;;;;;;;;;;5018492;28;20500;-70
2022/07/01 11:54:45;;;;;;;2.65;2.40;;;;;;;;;;5021678;28;20137;-70
2022/07/01 11:57:12;;;;;;;3.45;2.45;;;;;;;;;;5026545;28;20445;-71
2022/07/01 11:59:38;;;;;;;3.05;2.50;;;;;;;;;;5018289;28;20099;-78
2022/07/01 12:02:04;;;;;;;3.28;2.20;;;;;;;;;;5027482;28;20260;-71
2022/07/01 12:04:29;;;;;;;5.50;2.70;;;;;;;;;;5028052;28;20415;-68
2022/07/01 12:06:55;;;;;;;3.47;2.90;;;;;;;;;;5028305;28;20091;-70
2022/07/01 12:09:20;;;;;;;4.82;3.05;;;;;;;;;;5027949;28;20032;-70
2022/07/01 12:11:47;;;;;;;2.65;2.38;;;;;;;;;;5027661;28;20037;-70
2022/07/01 12:14:18;;;;;;;4.18;2.75;;;;;;;;;;5027984;28;20104;-76
2022/07/01 12:16:44;;;;;;;2.92;2.63;;;;;;;;;;5028070;28;20076;-68
2022/07/01 12:19:09;;;;;;;3.03;2.45;;;;;;;;;;5026837;28;20855;-71
2022/07/01 12:21:47;;;;;;;2.67;2.42;;;;;;;;;;5026000;28;20487;-68
2022/07/01 12:24:12;;;;;;;;;;;;;;;;;;5026494;28;20421;-67
2022/07/01 12:26:48;;;;;;;2.63;2.43;;;;;;;;;;5018913;28;19996;-68
2022/07/01 12:29:14;;;;;;;3.90;2.38;;;;;;;;;;5026294;28;20029;-72
2022/07/01 12:31:42;;;;;;;4.00;2.58;;;;;;;;;;5021291;28;20498;-67
2022/07/01 12:34:08;;;;;;;2.50;2.30;;;;;;;;;;5017209;28;20032;-69
2022/07/01 12:36:33;;;;;;;4.03;2.67;;;;;;;;;;5017374;28;20029;-75
2022/07/01 12:39:05;;;;;;;4.07;2.22;;;;;;;;;;5016229;28;20025;-70
2022/07/01 12:41:35;;;;;;;2.95;2.70;;;;;;;;;;5019396;28;20057;-69
2022/07/01 12:44:01;;;;;;;2.85;2.28;;;;;;;;;;5024450;28;20107;-67
2022/07/01 12:46:30;;;;;;;3.17;2.40;;;;;;;;;;5025762;28;20348;-68
2022/07/01 12:48:56;;;;;;;3.20;2.58;;;;;;;;;;5016749;28;20024;-70
2022/07/01 12:51:27;;;;;;;3.28;2.45;;;;;;;;;;5021892;28;20337;-69
2022/07/01 12:53:53;;;;;;;3.00;2.80;;;;;;;;;;5018324;28;20037;-71
2022/07/01 12:56:26;;;;;;;2.42;2.25;;;;;;;;;;5022484;28;20353;-67
2022/07/01 12:58:54;;;;;;;3.00;2.70;;;;;;;;;;5026712;28;20459;-71
2022/07/01 13:01:20;;;;;;;2.50;2.30;;;;;;;;;;5020689;28;20034;-68
2022/07/01 13:03:45;;;;;;;2.85;2.50;;;;;;;;;;5023627;28;20102;-70
2022/07/01 13:06:11;;;;;;;4.22;2.90;;;;;;;;;;5026547;28;20034;-69
2022/07/01 13:08:36;;;;;;;2.85;2.50;;;;;;;;;;5026508;28;20025;-70
2022/07/01 13:11:02;;;;;;;2.55;2.35;;;;;;;;;;5027284;28;20029;-74
2022/07/01 13:13:27;;;;;;;6.22;2.83;;;;;;;;;;5022659;28;20025;-70
2022/07/01 13:15:54;;;;;;;3.40;2.58;;;;;;;;;;5015707;28;20040;-70
2022/07/01 13:18:19;;;;;;;4.05;2.90;;;;;;;;;;5013978;28;20033;-67
2022/07/01 13:20:46;;;;;;;4.13;2.80;;;;;;;;;;5026099;28;20025;-68
2022/07/01 13:23:11;;;;;;;5.00;2.80;;;;;;;;;;5019132;28;20423;-74
2022/07/01 13:25:37;;;;;;;3.13;2.67;;;;;;;;;;5016734;28;20113;-70
2022/07/01 13:28:02;;;;;;;3.42;2.42;;;;;;;;;;5025890;28;20349;-71
2022/07/01 13:30:28;;;;;;;3.67;2.70;;;;;;;;;;5025883;28;20108;-68
2022/07/01 13:32:53;;;;;;;3.10;2.70;;;;;;;;;;5025566;28;20033;-67
2022/07/01 13:35:19;;;;;;;3.08;2.55;;;;;;;;;;5025677;28;20384;-67
2022/07/01 13:37:45;;;;;;;3.38;2.78;;;;;;;;;;5026051;28;20033;-74
2022/07/01 13:40:11;;;;;;;3.30;2.72;;;;;;;;;;5020796;28;20028;-69
2022/07/01 13:42:36;;;;;;;2.92;2.67;;;;;;;;;;5019399;28;20137;-70
2022/07/01 13:45:03;;;;;;;3.28;2.88;;;;;;;;;;5022049;28;20057;-67
2022/07/01 13:47:28;;;;;;;3.55;2.33;;;;;;;;;;5015929;28;20091;-68
2022/07/01 13:49:53;;;;;;;2.90;2.67;;;;;;;;;;5011440;28;20021;-67
2022/07/01 13:52:19;;;;;;;4.72;3.08;;;;;;;;;;5015771;28;20033;-67
2022/07/01 13:54:44;;;;;;;3.08;2.78;;;;;;;;;;5015857;28;20471;-68
2022/07/01 13:57:10;;;;;;;3.05;2.78;;;;;;;;;;5015602;28;20043;-66
2022/07/01 13:59:35;;;;;;;2.72;2.53;;;;;;;;;;5016184;28;20110;-74
2022/07/01 14:02:00;;;;;;;4.00;3.08;;;;;;;;;;5015792;28;20045;-68
2022/07/01 14:04:26;;;;;;;3.95;2.85;;;;;;;;;;5015379;28;20028;-69
2022/07/01 14:06:51;;;;;;;2.85;2.65;;;;;;;;;;5015376;28;20531;-68
2022/07/01 14:09:17;;;;;;;3.80;2.85;;;;;;;;;;5015484;28;20436;-68
2022/07/01 14:11:42;;;;;;;3.13;2.83;;;;;;;;;;5015689;28;20087;-69
2022/07/01 14:14:07;;;;;;;3.33;3.03;;;;;;;;;;5015604;28;20112;-67
2022/07/01 14:16:33;;;;;;;5.55;3.03;;;;;;;;;;5015166;28;20401;-68
2022/07/01 14:18:58;;;;;;;4.72;3.00;;;;;;;;;;5014304;28;20017;-67
2022/07/01 14:21:24;;;;;;;3.78;2.63;;;;;;;;;;5015365;28;20033;-67
2022/07/01 14:23:49;;;;;;;3.35;2.80;;;;;;;;;;5015527;28;20026;-69
2022/07/01 14:26:15;;;;;;;2.75;2.55;;;;;;;;;;5015472;28;20409;-74
2022/07/01 14:28:41;;;;;;;3.45;2.83;;;;;;;;;;5015418;28;20432;-67
2022/07/01 14:31:06;;;;;;;2.90;2.70;;;;;;;;;;5013983;28;20444;-69
2022/07/01 14:33:32;;;;;;;3.20;2.90;;;;;;;;;;5014026;28;20033;-67
2022/07/01 14:35:57;;;;;;;3.83;2.92;;;;;;;;;;5015036;28;20029;-68
2022/07/01 14:38:22;;;;;;;3.00;2.80;;;;;;;;;;5015327;28;20083;-69
2022/07/01 14:40:48;;;;;;;3.58;2.60;;;;;;;;;;5013713;28;20329;-73
2022/07/01 14:43:13;;;;;;;2.92;2.60;;;;;;;;;;5015144;28;20352;-70
2022/07/01 14:45:38;;;;;;;2.67;2.47;;;;;;;;;;5015080;28;20025;-67
2022/07/01 14:48:04;;;;;;;2.95;2.75;;;;;;;;;;5014517;28;20029;-74
2022/07/01 14:50:29;;;;;;;2.90;2.70;;;;;;;;;;5015333;28;20365;-68